createdAt,value
2019-06-15T00:00:05.577Z,0.00
2019-06-15T00:01:05.601Z,0.00
2019-06-15T00:02:05.628Z,0.00
2019-06-15T00:03:05.652Z,0.00
2019-06-15T00:04:05.675Z,0.00
2019-06-15T00:05:05.702Z,0.00
2019-06-15T00:06:05.733Z,0.00
2019-06-15T00:07:05.753Z,0.00
2019-06-15T00:08:05.780Z,0.00
2019-06-15T00:09:05.809Z,0.00
2019-06-15T00:10:05.831Z,0.00
2019-06-15T00:11:05.855Z,0.00
2019-06-15T00:12:05.892Z,0.00
2019-06-15T00:13:05.981Z,0.00
2019-06-15T00:14:05.975Z,0.00
2019-06-15T00:15:06.016Z,0.00
2019-06-15T00:16:06.032Z,0.00
2019-06-15T00:17:06.035Z,0.00
2019-06-15T00:18:06.031Z,0.00
2019-06-15T00:19:06.059Z,0.00
2019-06-15T00:20:06.086Z,0.00
2019-06-15T00:21:06.106Z,0.00
2019-06-15T00:22:06.135Z,0.00
2019-06-15T00:23:06.159Z,0.00
2019-06-15T00:24:06.186Z,0.00
2019-06-15T00:25:06.209Z,0.00
2019-06-15T00:26:06.238Z,0.00
2019-06-15T00:27:06.260Z,0.00
2019-06-15T00:28:06.284Z,0.00
2019-06-15T00:29:06.317Z,0.00
2019-06-15T00:30:06.336Z,0.00
2019-06-15T00:31:06.361Z,0.00
2019-06-15T00:32:06.384Z,0.00
2019-06-15T00:33:06.411Z,0.00
2019-06-15T00:34:06.437Z,0.00
2019-06-15T00:35:06.464Z,0.00
2019-06-15T00:36:06.487Z,0.00
2019-06-15T00:37:06.515Z,0.00
2019-06-15T00:38:06.542Z,0.00
2019-06-15T00:39:06.567Z,0.00
2019-06-15T00:40:06.590Z,0.00
2019-06-15T00:41:06.614Z,0.00
2019-06-15T00:42:06.644Z,0.00
2019-06-15T00:43:06.666Z,0.00
2019-06-15T00:44:06.694Z,0.00
2019-06-15T00:45:06.715Z,0.00
2019-06-15T00:46:06.753Z,0.00
2019-06-15T00:47:06.770Z,0.00
2019-06-15T00:48:06.792Z,0.00
2019-06-15T00:49:06.817Z,0.00
2019-06-15T00:50:06.843Z,0.00
2019-06-15T00:51:06.866Z,0.00
2019-06-15T00:52:06.890Z,0.00
2019-06-15T00:53:06.916Z,0.00
2019-06-15T00:54:06.943Z,0.00
2019-06-15T00:55:06.976Z,0.00
2019-06-15T00:56:06.995Z,0.00
2019-06-15T00:57:07.023Z,0.00
2019-06-15T00:58:07.048Z,0.00
2019-06-15T00:59:07.070Z,0.00
2019-06-15T01:00:07.095Z,0.00
2019-06-15T01:01:07.121Z,0.00
2019-06-15T01:02:07.146Z,0.00
2019-06-15T01:03:07.170Z,0.00
2019-06-15T01:04:07.199Z,0.00
2019-06-15T01:05:07.219Z,0.00
2019-06-15T01:06:07.249Z,0.00
2019-06-15T01:07:07.271Z,0.00
2019-06-15T01:08:07.298Z,0.00
2019-06-15T01:09:07.321Z,0.00
2019-06-15T01:10:07.345Z,0.00
2019-06-15T01:11:07.372Z,0.00
2019-06-15T01:12:07.403Z,0.00
2019-06-15T01:13:07.426Z,0.00
2019-06-15T01:14:07.447Z,0.00
2019-06-15T01:15:07.473Z,0.00
2019-06-15T01:16:07.501Z,0.00
2019-06-15T01:17:07.519Z,0.00
2019-06-15T01:18:07.547Z,0.00
2019-06-15T01:19:07.578Z,0.00
2019-06-15T01:20:07.604Z,0.00
2019-06-15T01:21:07.618Z,0.00
2019-06-15T01:22:07.645Z,0.00
2019-06-15T01:23:07.675Z,0.00
2019-06-15T01:24:07.700Z,0.00
2019-06-15T01:25:07.723Z,0.00
2019-06-15T01:26:07.749Z,0.00
2019-06-15T01:27:07.773Z,0.00
2019-06-15T01:28:07.878Z,0.00
2019-06-15T01:29:07.878Z,0.00
2019-06-15T01:30:07.886Z,0.00
2019-06-15T01:31:07.930Z,0.00
2019-06-15T01:32:07.938Z,0.00
2019-06-15T01:33:07.930Z,0.00
2019-06-15T01:34:07.949Z,0.00
2019-06-15T01:35:07.975Z,0.00
2019-06-15T01:36:08.001Z,0.00
2019-06-15T01:37:08.023Z,0.00
2019-06-15T01:38:08.049Z,0.00
2019-06-15T01:39:08.074Z,0.00
2019-06-15T01:40:08.100Z,0.00
2019-06-15T01:41:08.121Z,0.00
2019-06-15T01:42:08.149Z,0.00
2019-06-15T01:43:08.175Z,0.00
2019-06-15T01:44:08.207Z,0.00
2019-06-15T01:45:08.221Z,0.00
2019-06-15T01:46:08.251Z,0.00
2019-06-15T01:47:08.276Z,0.00
2019-06-15T01:48:08.301Z,0.00
2019-06-15T01:49:08.351Z,0.00
2019-06-15T01:50:08.350Z,0.00
2019-06-15T01:51:08.375Z,0.00
2019-06-15T01:52:08.405Z,0.00
2019-06-15T01:53:08.425Z,0.00
2019-06-15T01:54:08.449Z,0.00
2019-06-15T01:55:19.909Z,0.00
2019-06-15T01:56:08.501Z,0.00
2019-06-15T01:57:08.526Z,0.00
2019-06-15T01:58:08.551Z,0.00
2019-06-15T01:59:08.577Z,0.00
2019-06-15T02:00:08.602Z,0.00
2019-06-15T02:01:08.623Z,0.00
2019-06-15T02:02:08.649Z,0.00
2019-06-15T02:03:08.678Z,0.00
2019-06-15T02:04:08.701Z,0.00
2019-06-15T02:05:08.725Z,0.00
2019-06-15T02:06:08.750Z,4.00
2019-06-15T02:07:08.774Z,4.00
2019-06-15T02:08:08.802Z,4.00
2019-06-15T02:09:08.826Z,4.00
2019-06-15T02:10:08.850Z,4.00
2019-06-15T02:11:08.878Z,4.00
2019-06-15T02:12:08.907Z,4.00
2019-06-15T02:13:08.973Z,4.00
2019-06-15T02:14:08.954Z,0.00
2019-06-15T02:15:08.978Z,0.00
2019-06-15T02:16:09.000Z,4.00
2019-06-15T02:17:09.030Z,4.00
2019-06-15T02:18:09.047Z,4.00
2019-06-15T02:19:09.076Z,4.00
2019-06-15T02:20:09.099Z,8.00
2019-06-15T02:21:09.120Z,8.00
2019-06-15T02:22:09.147Z,8.00
2019-06-15T02:23:09.173Z,8.00
2019-06-15T02:24:09.200Z,12.00
2019-06-15T02:25:09.221Z,12.00
2019-06-15T02:26:09.250Z,12.00
2019-06-15T02:27:09.279Z,12.00
2019-06-15T02:28:09.299Z,16.00
2019-06-15T02:29:09.323Z,16.00
2019-06-15T02:30:09.349Z,16.00
2019-06-15T02:31:09.385Z,16.00
2019-06-15T02:32:09.400Z,16.00
2019-06-15T02:33:09.429Z,20.00
2019-06-15T02:34:09.451Z,20.00
2019-06-15T02:35:09.475Z,20.00
2019-06-15T02:36:09.500Z,20.00
2019-06-15T02:37:09.523Z,20.00
2019-06-15T02:38:09.548Z,20.00
2019-06-15T02:39:09.570Z,24.00
2019-06-15T02:40:09.598Z,24.00
2019-06-15T02:41:09.623Z,24.00
2019-06-15T02:42:09.646Z,28.00
2019-06-15T02:43:09.675Z,28.00
2019-06-15T02:44:09.709Z,36.00
2019-06-15T02:45:09.791Z,36.00
2019-06-15T02:46:09.785Z,36.00
2019-06-15T02:47:09.854Z,40.00
2019-06-15T02:48:09.838Z,44.00
2019-06-15T02:49:09.845Z,40.00
2019-06-15T02:50:09.847Z,48.00
2019-06-15T02:51:09.872Z,48.00
2019-06-15T02:52:09.942Z,52.00
2019-06-15T02:53:09.928Z,60.00
2019-06-15T02:54:09.946Z,68.00
2019-06-15T02:55:09.970Z,76.00
2019-06-15T02:56:09.996Z,84.00
2019-06-15T02:57:10.022Z,92.00
2019-06-15T02:58:10.046Z,104.00
2019-06-15T02:59:10.074Z,120.00
2019-06-15T03:00:10.093Z,132.00
2019-06-15T03:01:10.121Z,148.00
2019-06-15T03:02:10.146Z,164.00
2019-06-15T03:03:10.172Z,180.00
2019-06-15T03:04:10.195Z,200.00
2019-06-15T03:05:10.253Z,220.00
2019-06-15T03:06:10.245Z,244.00
2019-06-15T03:07:10.271Z,272.00
2019-06-15T03:08:10.323Z,300.00
2019-06-15T03:09:10.319Z,336.00
2019-06-15T03:10:10.346Z,372.00
2019-06-15T03:11:10.371Z,412.00
2019-06-15T03:12:10.396Z,456.00
2019-06-15T03:13:10.419Z,492.00
2019-06-15T03:14:10.444Z,536.00
2019-06-15T03:15:10.466Z,580.00
2019-06-15T03:16:10.493Z,624.00
2019-06-15T03:17:10.517Z,668.00
2019-06-15T03:18:10.546Z,712.00
2019-06-15T03:19:10.568Z,752.00
2019-06-15T03:20:10.592Z,780.00
2019-06-15T03:21:10.620Z,796.00
2019-06-15T03:22:10.645Z,792.00
2019-06-15T03:23:10.665Z,768.00
2019-06-15T03:24:10.696Z,724.00
2019-06-15T03:25:10.718Z,676.00
2019-06-15T03:26:10.741Z,632.00
2019-06-15T03:27:10.770Z,600.00
2019-06-15T03:28:10.791Z,572.00
2019-06-15T03:29:10.819Z,552.00
2019-06-15T03:30:10.843Z,540.00
2019-06-15T03:31:10.869Z,540.00
2019-06-15T03:32:10.891Z,548.00
2019-06-15T03:33:10.917Z,564.00
2019-06-15T03:34:10.968Z,592.00
2019-06-15T03:35:10.969Z,628.00
2019-06-15T03:36:10.992Z,668.00
2019-06-15T03:37:11.013Z,708.00
2019-06-15T03:38:11.040Z,724.00
2019-06-15T03:39:11.063Z,728.00
2019-06-15T03:40:11.092Z,728.00
2019-06-15T03:41:11.112Z,736.00
2019-06-15T03:42:11.139Z,748.00
2019-06-15T03:43:11.162Z,764.00
2019-06-15T03:44:11.186Z,784.00
2019-06-15T03:45:11.213Z,808.00
2019-06-15T03:46:11.236Z,828.00
2019-06-15T03:47:11.268Z,856.00
2019-06-15T03:48:11.298Z,872.00
2019-06-15T03:49:11.315Z,896.00
2019-06-15T03:50:11.335Z,912.00
2019-06-15T03:51:11.360Z,928.00
2019-06-15T03:52:11.384Z,940.00
2019-06-15T03:53:11.409Z,952.00
2019-06-15T03:54:11.432Z,972.00
2019-06-15T03:55:11.459Z,996.00
2019-06-15T03:56:21.180Z,1032.00
2019-06-15T03:57:11.506Z,1076.00
2019-06-15T03:58:11.530Z,1148.00
2019-06-15T03:59:11.556Z,1248.00
2019-06-15T04:00:11.585Z,1380.00
2019-06-15T04:01:11.632Z,1536.00
2019-06-15T04:02:11.692Z,1700.00
2019-06-15T04:03:11.709Z,1852.00
2019-06-15T04:04:11.749Z,1976.00
2019-06-15T04:05:11.751Z,2064.00
2019-06-15T04:06:11.751Z,2112.00
2019-06-15T04:07:11.751Z,2104.00
2019-06-15T04:08:11.778Z,2032.00
2019-06-15T04:09:11.802Z,1944.00
2019-06-15T04:10:11.827Z,1820.00
2019-06-15T04:11:11.852Z,1756.00
2019-06-15T04:12:11.877Z,1740.00
2019-06-15T04:13:11.899Z,1768.00
2019-06-15T04:14:11.925Z,1844.00
2019-06-15T04:15:11.949Z,1976.00
2019-06-15T04:16:11.979Z,2156.00
2019-06-15T04:17:12.004Z,2360.00
2019-06-15T04:18:12.022Z,2556.00
2019-06-15T04:19:12.049Z,2732.00
2019-06-15T04:20:12.077Z,2856.00
2019-06-15T04:21:12.101Z,2972.00
2019-06-15T04:22:12.125Z,3080.00
2019-06-15T04:23:12.145Z,3176.00
2019-06-15T04:24:12.171Z,3220.00
2019-06-15T04:25:12.205Z,3256.00
2019-06-15T04:26:12.221Z,3308.00
2019-06-15T04:27:12.246Z,3388.00
2019-06-15T04:28:12.272Z,3516.00
2019-06-15T04:29:12.296Z,3640.00
2019-06-15T04:30:12.321Z,3744.00
2019-06-15T04:31:12.347Z,3856.00
2019-06-15T04:32:12.369Z,3992.00
2019-06-15T04:33:12.430Z,4200.00
2019-06-15T04:34:12.421Z,4472.00
2019-06-15T04:35:12.444Z,4896.00
2019-06-15T04:36:12.470Z,5592.00
2019-06-15T04:37:12.495Z,6400.00
2019-06-15T04:38:12.518Z,6944.00
2019-06-15T04:39:12.544Z,7112.00
2019-06-15T04:40:12.571Z,7016.00
2019-06-15T04:41:12.595Z,6796.00
2019-06-15T04:42:12.620Z,6780.00
2019-06-15T04:43:12.646Z,7028.00
2019-06-15T04:44:12.672Z,7420.00
2019-06-15T04:45:12.694Z,7864.00
2019-06-15T04:46:12.721Z,8228.00
2019-06-15T04:47:12.747Z,8440.00
2019-06-15T04:48:12.826Z,8556.00
2019-06-15T04:49:12.795Z,8728.00
2019-06-15T04:50:12.820Z,8952.00
2019-06-15T04:51:12.882Z,9056.00
2019-06-15T04:52:12.898Z,8976.00
2019-06-15T04:53:14.834Z,8900.00
2019-06-15T04:54:12.923Z,8740.00
2019-06-15T04:55:12.952Z,8508.00
2019-06-15T04:56:12.976Z,8260.00
2019-06-15T04:57:12.999Z,8064.00
2019-06-15T04:58:13.033Z,7764.00
2019-06-15T04:59:13.051Z,7428.00
2019-06-15T05:00:13.076Z,7108.00
2019-06-15T05:01:13.099Z,6828.00
2019-06-15T05:02:13.126Z,6552.00
2019-06-15T05:03:13.155Z,6364.00
2019-06-15T05:04:13.186Z,6352.00
2019-06-15T05:05:13.203Z,6516.00
2019-06-15T05:06:13.233Z,6944.00
2019-06-15T05:07:13.254Z,7476.00
2019-06-15T05:08:13.291Z,8124.00
2019-06-15T05:09:13.310Z,8672.00
2019-06-15T05:10:13.332Z,8420.00
2019-06-15T05:11:13.363Z,9136.00
2019-06-15T05:12:13.387Z,10576.00
2019-06-15T05:13:13.409Z,10760.00
2019-06-15T05:14:13.436Z,10908.00
2019-06-15T05:15:13.463Z,11892.00
2019-06-15T05:16:13.486Z,12072.00
2019-06-15T05:17:13.522Z,12668.00
2019-06-15T05:18:13.599Z,13268.00
2019-06-15T05:19:13.607Z,17728.00
2019-06-15T05:20:13.652Z,17056.00
2019-06-15T05:21:13.659Z,16832.00
2019-06-15T05:22:13.658Z,17536.00
2019-06-15T05:23:13.667Z,15216.00
2019-06-15T05:24:13.693Z,14872.00
2019-06-15T05:25:13.716Z,15356.00
2019-06-15T05:26:13.744Z,10384.00
2019-06-15T05:27:13.776Z,9968.00
2019-06-15T05:28:13.797Z,9840.00
2019-06-15T05:29:13.821Z,9916.00
2019-06-15T05:30:13.851Z,13136.00
2019-06-15T05:31:13.879Z,10848.00
2019-06-15T05:32:13.904Z,12704.00
2019-06-15T05:33:13.934Z,12316.00
2019-06-15T05:34:13.954Z,17152.00
2019-06-15T05:35:13.981Z,15620.00
2019-06-15T05:36:14.007Z,14332.00
2019-06-15T05:37:14.032Z,15248.00
2019-06-15T05:38:14.060Z,16280.00
2019-06-15T05:39:14.086Z,15436.00
2019-06-15T05:40:14.113Z,18400.00
2019-06-15T05:41:15.788Z,16704.00
2019-06-15T05:42:14.167Z,16304.00
2019-06-15T05:43:14.191Z,17408.00
2019-06-15T05:44:14.220Z,16884.00
2019-06-15T05:45:14.254Z,16868.00
2019-06-15T05:46:14.269Z,16844.00
2019-06-15T05:47:14.295Z,17312.00
2019-06-15T05:48:14.327Z,16280.00
2019-06-15T05:49:14.351Z,15752.00
2019-06-15T05:50:14.380Z,14348.00
2019-06-15T05:51:14.425Z,13608.00
2019-06-15T05:52:14.432Z,13264.00
2019-06-15T05:53:14.457Z,13380.00
2019-06-15T05:54:14.483Z,13592.00
2019-06-15T05:55:14.510Z,14160.00
2019-06-15T05:56:14.538Z,14548.00
2019-06-15T05:57:21.551Z,14640.00
2019-06-15T05:58:14.589Z,14760.00
2019-06-15T05:59:14.617Z,14984.00
2019-06-15T06:00:14.644Z,15888.00
2019-06-15T06:01:14.670Z,17140.00
2019-06-15T06:02:14.697Z,16708.00
2019-06-15T06:03:14.724Z,18944.00
2019-06-15T06:04:14.764Z,19040.00
2019-06-15T06:05:14.777Z,19904.00
2019-06-15T06:06:14.807Z,21984.00
2019-06-15T06:07:14.832Z,21408.00
2019-06-15T06:08:14.860Z,20736.00
2019-06-15T06:09:14.890Z,21056.00
2019-06-15T06:10:14.912Z,25504.00
2019-06-15T06:11:14.957Z,26528.00
2019-06-15T06:12:15.005Z,23712.00
2019-06-15T06:13:14.991Z,25024.00
2019-06-15T06:14:15.021Z,25984.00
2019-06-15T06:15:15.046Z,26528.00
2019-06-15T06:16:15.080Z,26144.00
2019-06-15T06:17:15.102Z,22720.00
2019-06-15T06:18:15.131Z,36000.00
2019-06-15T06:19:15.156Z,20704.00
2019-06-15T06:20:15.185Z,20000.00
2019-06-15T06:21:15.212Z,40544.00
2019-06-15T06:22:15.242Z,23712.00
2019-06-15T06:23:15.265Z,30560.00
2019-06-15T06:24:15.296Z,24992.00
2019-06-15T06:25:15.323Z,36960.00
2019-06-15T06:26:15.388Z,20896.00
2019-06-15T06:27:15.431Z,38720.00
2019-06-15T06:28:15.411Z,28288.00
2019-06-15T06:29:15.494Z,20000.00
2019-06-15T06:30:15.506Z,21056.00
2019-06-15T06:31:15.517Z,32128.00
2019-06-15T06:32:15.570Z,19264.00
2019-06-15T06:33:15.572Z,18720.00
2019-06-15T06:34:15.576Z,19424.00
2019-06-15T06:35:15.606Z,20032.00
2019-06-15T06:36:15.633Z,22400.00
2019-06-15T06:37:15.662Z,24736.00
2019-06-15T06:38:15.716Z,23488.00
2019-06-15T06:39:15.718Z,24768.00
2019-06-15T06:40:15.751Z,27840.00
2019-06-15T06:41:15.778Z,30208.00
2019-06-15T06:42:15.806Z,25472.00
2019-06-15T06:43:15.833Z,34336.00
2019-06-15T06:44:15.861Z,35744.00
2019-06-15T06:45:15.892Z,43104.00
2019-06-15T06:46:15.922Z,36640.00
2019-06-15T06:47:16.003Z,36384.00
2019-06-15T06:48:15.981Z,32640.00
2019-06-15T06:49:16.007Z,46208.00
2019-06-15T06:50:16.032Z,47296.00
2019-06-15T06:51:16.065Z,47648.00
2019-06-15T06:52:16.093Z,48544.00
2019-06-15T06:53:16.125Z,47200.00
2019-06-15T06:54:16.151Z,50720.00
2019-06-15T06:55:16.184Z,49312.00
2019-06-15T06:56:16.216Z,46208.00
2019-06-15T06:57:16.247Z,40576.00
2019-06-15T06:58:16.278Z,29088.00
2019-06-15T06:59:16.308Z,32800.00
2019-06-15T07:00:16.340Z,27168.00
2019-06-15T07:01:16.370Z,24064.00
2019-06-15T07:02:16.401Z,23232.00
2019-06-15T07:03:16.431Z,26720.00
2019-06-15T07:04:16.465Z,31008.00
2019-06-15T07:05:16.497Z,27072.00
2019-06-15T07:06:16.528Z,26560.00
2019-06-15T07:07:16.560Z,26880.00
2019-06-15T07:08:16.594Z,33056.00
2019-06-15T07:09:16.621Z,31936.00
2019-06-15T07:10:16.652Z,33920.00
2019-06-15T07:11:16.684Z,38624.00
2019-06-15T07:12:16.717Z,35968.00
2019-06-15T07:13:16.748Z,23360.00
2019-06-15T07:14:16.777Z,21248.00
2019-06-15T07:15:16.810Z,20160.00
2019-06-15T07:16:16.841Z,19104.00
2019-06-15T07:17:16.869Z,19328.00
2019-06-15T07:18:16.901Z,20096.00
2019-06-15T07:19:16.931Z,20992.00
2019-06-15T07:20:16.965Z,19072.00
2019-06-15T07:21:16.995Z,18560.00
2019-06-15T07:22:17.033Z,18176.00
2019-06-15T07:23:17.055Z,18112.00
2019-06-15T07:24:17.098Z,17952.00
2019-06-15T07:25:17.117Z,18304.00
2019-06-15T07:26:17.148Z,19104.00
2019-06-15T07:27:17.177Z,18784.00
2019-06-15T07:28:17.209Z,18880.00
2019-06-15T07:29:17.286Z,19520.00
2019-06-15T07:30:17.276Z,20736.00
2019-06-15T07:31:17.300Z,22944.00
2019-06-15T07:32:17.329Z,23232.00
2019-06-15T07:33:17.437Z,23808.00
2019-06-15T07:34:17.447Z,22464.00
2019-06-15T07:35:17.449Z,20800.00
2019-06-15T07:36:17.495Z,19840.00
2019-06-15T07:37:17.490Z,19328.00
2019-06-15T07:38:17.507Z,19424.00
2019-06-15T07:39:17.538Z,20032.00
2019-06-15T07:40:17.568Z,20576.00
2019-06-15T07:41:17.597Z,20800.00
2019-06-15T07:42:17.633Z,21664.00
2019-06-15T07:43:17.657Z,22016.00
2019-06-15T07:44:17.690Z,23712.00
2019-06-15T07:45:17.715Z,24352.00
2019-06-15T07:46:17.771Z,33472.00
2019-06-15T07:47:17.777Z,28576.00
2019-06-15T07:48:17.809Z,30720.00
2019-06-15T07:49:17.835Z,26944.00
2019-06-15T07:50:17.863Z,57984.00
2019-06-15T07:51:17.901Z,49472.00
2019-06-15T07:52:17.929Z,49600.00
2019-06-15T07:53:17.955Z,47872.00
2019-06-15T07:54:17.985Z,58336.00
2019-06-15T07:55:18.015Z,55296.00
2019-06-15T07:56:18.046Z,55840.00
2019-06-15T07:57:18.077Z,55392.00
2019-06-15T07:58:24.480Z,54688.00
2019-06-15T07:59:18.141Z,52064.00
2019-06-15T08:00:18.179Z,55072.00
2019-06-15T08:01:18.215Z,55872.00
2019-06-15T08:02:18.254Z,57248.00
2019-06-15T08:03:18.273Z,57856.00
2019-06-15T08:04:18.305Z,43648.00
2019-06-15T08:05:18.340Z,46016.00
2019-06-15T08:06:18.373Z,44768.00
2019-06-15T08:07:18.402Z,64416.00
2019-06-15T08:08:18.440Z,67424.00
2019-06-15T08:09:18.469Z,43008.00
2019-06-15T08:10:18.501Z,26848.00
2019-06-15T08:11:18.535Z,22752.00
2019-06-15T08:12:18.573Z,21728.00
2019-06-15T08:13:18.606Z,22752.00
2019-06-15T08:14:18.641Z,23904.00
2019-06-15T08:15:18.675Z,25760.00
2019-06-15T08:16:18.706Z,36384.00
2019-06-15T08:17:18.742Z,44928.00
2019-06-15T08:18:18.775Z,60096.00
2019-06-15T08:19:18.807Z,46368.00
2019-06-15T08:20:18.839Z,40512.00
2019-06-15T08:21:18.874Z,37760.00
2019-06-15T08:22:18.914Z,40128.00
2019-06-15T08:23:18.941Z,35776.00
2019-06-15T08:24:18.980Z,27648.00
2019-06-15T08:25:19.047Z,32448.00
2019-06-15T08:26:19.040Z,42720.00
2019-06-15T08:27:19.078Z,41248.00
2019-06-15T08:28:19.114Z,40864.00
2019-06-15T08:29:19.146Z,33920.00
2019-06-15T08:30:19.176Z,24096.00
2019-06-15T08:31:19.212Z,22944.00
2019-06-15T08:32:19.247Z,33280.00
2019-06-15T08:33:19.327Z,26880.00
2019-06-15T08:34:19.363Z,23392.00
2019-06-15T08:35:19.382Z,34688.00
2019-06-15T08:36:19.425Z,62720.00
2019-06-15T08:37:19.429Z,63840.00
2019-06-15T08:38:19.443Z,43200.00
2019-06-15T08:39:19.478Z,35040.00
2019-06-15T08:40:19.512Z,37376.00
2019-06-15T08:41:19.544Z,48448.00
2019-06-15T08:42:19.578Z,64320.00
2019-06-15T08:43:19.615Z,64448.00
2019-06-15T08:44:19.647Z,65120.00
2019-06-15T08:45:19.682Z,64864.00
2019-06-15T08:46:19.715Z,65728.00
2019-06-15T08:47:19.747Z,64352.00
2019-06-15T08:48:19.782Z,65632.00
2019-06-15T08:49:19.827Z,66688.00
2019-06-15T08:50:19.853Z,68608.00
2019-06-15T08:51:19.893Z,68640.00
2019-06-15T08:52:19.922Z,70912.00
2019-06-15T08:53:19.957Z,73312.00
2019-06-15T08:54:19.992Z,72288.00
2019-06-15T08:55:20.031Z,71360.00
2019-06-15T08:56:20.064Z,69664.00
2019-06-15T08:57:20.103Z,69632.00
2019-06-15T08:58:20.134Z,68736.00
2019-06-15T08:59:20.174Z,68000.00
2019-06-15T09:00:20.212Z,66592.00
2019-06-15T09:01:20.310Z,64864.00
2019-06-15T09:02:20.285Z,65344.00
2019-06-15T09:03:20.324Z,66688.00
2019-06-15T09:04:20.357Z,66080.00
2019-06-15T09:05:20.413Z,64928.00
2019-06-15T09:06:20.436Z,63680.00
2019-06-15T09:07:20.472Z,64704.00
2019-06-15T09:08:20.508Z,65152.00
2019-06-15T09:09:20.547Z,58880.00
2019-06-15T09:10:20.583Z,51936.00
2019-06-15T09:11:20.622Z,43712.00
2019-06-15T09:12:20.658Z,38592.00
2019-06-15T09:13:20.702Z,42176.00
2019-06-15T09:14:20.735Z,64672.00
2019-06-15T09:15:20.777Z,60608.00
2019-06-15T09:16:20.810Z,61088.00
2019-06-15T09:17:20.851Z,66080.00
2019-06-15T09:18:20.884Z,69216.00
2019-06-15T09:19:20.946Z,72544.00
2019-06-15T09:20:20.961Z,72832.00
2019-06-15T09:21:21.002Z,71872.00
2019-06-15T09:22:21.039Z,71936.00
2019-06-15T09:23:21.076Z,70496.00
2019-06-15T09:24:21.118Z,72448.00
2019-06-15T09:25:21.153Z,72736.00
2019-06-15T09:26:21.192Z,72704.00
2019-06-15T09:27:21.293Z,72288.00
2019-06-15T09:28:21.298Z,70048.00
2019-06-15T09:29:21.378Z,66400.00
2019-06-15T09:30:21.369Z,70976.00
2019-06-15T09:31:21.387Z,71456.00
2019-06-15T09:32:21.426Z,71744.00
2019-06-15T09:33:21.463Z,73920.00
2019-06-15T09:34:21.516Z,74944.00
2019-06-15T09:35:21.543Z,72960.00
2019-06-15T09:36:21.585Z,74848.00
2019-06-15T09:37:21.624Z,64096.00
2019-06-15T09:38:21.665Z,67936.00
2019-06-15T09:39:21.702Z,63968.00
2019-06-15T09:40:21.751Z,83488.00
2019-06-15T09:41:21.791Z,82720.00
2019-06-15T09:42:21.821Z,84256.00
2019-06-15T09:43:21.861Z,86848.00
2019-06-15T09:44:21.902Z,85664.00
2019-06-15T09:45:21.941Z,80704.00
2019-06-15T09:46:21.982Z,56832.00
2019-06-15T09:47:22.024Z,39360.00
2019-06-15T09:48:22.062Z,21088.00
2019-06-15T09:49:22.102Z,35936.00
2019-06-15T09:50:22.141Z,59680.00
2019-06-15T09:51:22.181Z,80032.00
2019-06-15T09:52:22.222Z,83968.00
2019-06-15T09:53:22.259Z,69408.00
2019-06-15T09:54:22.303Z,95360.00
2019-06-15T09:55:22.341Z,95200.00
2019-06-15T09:56:22.385Z,101248.00
2019-06-15T09:57:22.422Z,76704.00
2019-06-15T09:58:22.462Z,68832.00
2019-06-15T09:59:25.903Z,82304.00
2019-06-15T10:00:22.543Z,55648.00
2019-06-15T10:01:22.581Z,47136.00
2019-06-15T10:02:22.622Z,44736.00
2019-06-15T10:03:22.666Z,47840.00
2019-06-15T10:04:22.707Z,60064.00
2019-06-15T10:05:22.741Z,74560.00
2019-06-15T10:06:22.785Z,39296.00
2019-06-15T10:07:22.823Z,44928.00
2019-06-15T10:08:22.866Z,39232.00
2019-06-15T10:09:22.900Z,52640.00
2019-06-15T10:10:22.942Z,35648.00
2019-06-15T10:11:22.980Z,61792.00
2019-06-15T10:12:23.020Z,35776.00
2019-06-15T10:13:23.058Z,38432.00
2019-06-15T10:14:23.098Z,38848.00
2019-06-15T10:15:23.144Z,85760.00
2019-06-15T10:16:23.246Z,37472.00
2019-06-15T10:17:23.261Z,36960.00
2019-06-15T10:18:23.302Z,44704.00
2019-06-15T10:19:23.301Z,34656.00
2019-06-15T10:20:23.339Z,34720.00
2019-06-15T10:21:23.372Z,37344.00
2019-06-15T10:22:23.411Z,38304.00
2019-06-15T10:23:23.453Z,49504.00
2019-06-15T10:24:23.494Z,55040.00
2019-06-15T10:25:23.529Z,35616.00
2019-06-15T10:26:23.568Z,34368.00
2019-06-15T10:27:23.606Z,27360.00
2019-06-15T10:28:23.649Z,25984.00
2019-06-15T10:29:23.682Z,26176.00
2019-06-15T10:30:23.720Z,28640.00
2019-06-15T10:31:23.757Z,29216.00
2019-06-15T10:32:23.797Z,31328.00
2019-06-15T10:33:23.834Z,29856.00
2019-06-15T10:34:23.875Z,28672.00
2019-06-15T10:35:23.907Z,28384.00
2019-06-15T10:36:23.946Z,28544.00
2019-06-15T10:37:23.989Z,28736.00
2019-06-15T10:38:24.019Z,28608.00
2019-06-15T10:39:24.053Z,28032.00
2019-06-15T10:40:24.094Z,27104.00
2019-06-15T10:41:24.131Z,26880.00
2019-06-15T10:42:24.170Z,27168.00
2019-06-15T10:43:24.214Z,27168.00
2019-06-15T10:44:24.283Z,26976.00
2019-06-15T10:45:24.279Z,26432.00
2019-06-15T10:46:24.311Z,25952.00
2019-06-15T10:47:24.346Z,25440.00
2019-06-15T10:48:24.384Z,24864.00
2019-06-15T10:49:24.417Z,24224.00
2019-06-15T10:50:24.453Z,23872.00
2019-06-15T10:51:24.490Z,23424.00
2019-06-15T10:52:24.526Z,23168.00
2019-06-15T10:53:24.560Z,23040.00
2019-06-15T10:54:24.596Z,23392.00
2019-06-15T10:55:24.630Z,23200.00
2019-06-15T10:56:24.677Z,22848.00
2019-06-15T10:57:24.700Z,23232.00
2019-06-15T10:58:24.734Z,27520.00
2019-06-15T10:59:24.771Z,23424.00
2019-06-15T11:00:24.805Z,23392.00
2019-06-15T11:01:24.836Z,23264.00
2019-06-15T11:02:24.874Z,22912.00
2019-06-15T11:03:24.910Z,22464.00
2019-06-15T11:04:24.944Z,22368.00
2019-06-15T11:05:24.984Z,22528.00
2019-06-15T11:06:25.012Z,23200.00
2019-06-15T11:07:25.047Z,23808.00
2019-06-15T11:08:25.088Z,24832.00
2019-06-15T11:09:25.180Z,24384.00
2019-06-15T11:10:25.175Z,24352.00
2019-06-15T11:11:25.230Z,24064.00
2019-06-15T11:12:25.237Z,23616.00
2019-06-15T11:13:25.256Z,23168.00
2019-06-15T11:14:25.287Z,23168.00
2019-06-15T11:15:25.322Z,23072.00
2019-06-15T11:16:25.356Z,23296.00
2019-06-15T11:17:25.387Z,23296.00
2019-06-15T11:18:25.434Z,23680.00
2019-06-15T11:19:25.465Z,28416.00
2019-06-15T11:20:25.491Z,24384.00
2019-06-15T11:21:25.526Z,24896.00
2019-06-15T11:22:25.560Z,25760.00
2019-06-15T11:23:25.594Z,27648.00
2019-06-15T11:24:25.627Z,31296.00
2019-06-15T11:25:25.666Z,29504.00
2019-06-15T11:26:25.723Z,30112.00
2019-06-15T11:27:25.817Z,30944.00
2019-06-15T11:28:25.765Z,31552.00
2019-06-15T11:29:25.799Z,32096.00
2019-06-15T11:30:25.833Z,31360.00
2019-06-15T11:31:25.868Z,32768.00
2019-06-15T11:32:25.901Z,34752.00
2019-06-15T11:33:25.935Z,31552.00
2019-06-15T11:34:25.968Z,32384.00
2019-06-15T11:35:26.008Z,35264.00
2019-06-15T11:36:26.040Z,53440.00
2019-06-15T11:37:26.072Z,88992.00
2019-06-15T11:38:26.110Z,58848.00
2019-06-15T11:39:26.143Z,53312.00
2019-06-15T11:40:26.178Z,42272.00
2019-06-15T11:41:26.212Z,39552.00
2019-06-15T11:42:26.247Z,44416.00
2019-06-15T11:43:26.283Z,40096.00
2019-06-15T11:44:26.319Z,36736.00
2019-06-15T11:45:26.355Z,34464.00
2019-06-15T11:46:26.389Z,35520.00
2019-06-15T11:47:26.430Z,40928.00
2019-06-15T11:48:26.462Z,39584.00
2019-06-15T11:49:26.496Z,43424.00
2019-06-15T11:50:26.533Z,37248.00
2019-06-15T11:51:26.570Z,43040.00
2019-06-15T11:52:26.606Z,42272.00
2019-06-15T11:53:26.641Z,41600.00
2019-06-15T11:54:26.676Z,45088.00
2019-06-15T11:55:38.604Z,101856.00
2019-06-15T11:56:26.777Z,98624.00
2019-06-15T11:57:26.781Z,95040.00
2019-06-15T11:58:26.839Z,91872.00
2019-06-15T11:59:26.860Z,87392.00
2019-06-15T12:00:31.125Z,86688.00
2019-06-15T12:01:26.937Z,83776.00
2019-06-15T12:02:26.987Z,81056.00
2019-06-15T12:03:27.010Z,79616.00
2019-06-15T12:04:27.104Z,77216.00
2019-06-15T12:05:27.111Z,75488.00
2019-06-15T12:06:27.224Z,73728.00
2019-06-15T12:07:27.170Z,73280.00
2019-06-15T12:08:27.215Z,76896.00
2019-06-15T12:09:27.241Z,76672.00
2019-06-15T12:10:27.284Z,75104.00